Milvauchia, WI

11:14 PM CDT die 22o May, anno 2015 (GMT -0500)
Bay View | | Change Station
CLOSE
Current Station
Personal Weather Stations
Location: Milwaukee, WI
Elevation: 643 ft
Nearby Weather Stations

Elev 643 ft 42.99 °N, 87.89 °W | Updated 49 seconds ago

Plerumque Nubila
Plerumque Nubila
46.6 °F
Feels Like 47 °F
N
0.0
Ventus Variabilis Ventus from Zephyrus

Hodie
High -- | Low -- °F
--% Chance of Precip.
Yesterday
High -- | Low -- °F
Precip. -- in
5:22 AM 8:15 PM
Waxing Crescent, 26% visible
Pressio 30.30 in
Visibilitas 10.0 milia passuum
Clouds Plerumque Nubila 25000 ft
Frigus Venti 47 °F
Frigus in quo Ros apparet 34 °F
Umor 62%
Rainfall 0.00 in
Snow Depth Not available.
UV 0 out of 12
Pollen 7.70 out of 12
Air Quality Not available.
Flu Activity Sporadic
METAR KMKE 230352Z 18005KT 10SM BKN250 09/M03 A3029 RMK AO2 SLP259 T00941028

More Conditions Fewer Conditions

Pressio 30.30 in
Visibilitas 10.0 milia passuum
Clouds Plerumque Nubila 25000 ft
Frigus Venti 47 °F
Frigus in quo Ros apparet 34 °F
Umor 62%
Rainfall 0.00 in
Snow Depth Not available.
UV 0 out of 12
Pollen 7.70 out of 12
Air Quality Not available.
Flu Activity Sporadic
METAR KMKE 230352Z 18005KT 10SM BKN250 09/M03 A3029 RMK AO2 SLP259 T00941028

More Conditions Fewer Conditions

10-Day Weather Forecast

Almanac

Astronomy

May. 22, 2015 Rise Set
Actual Time
Civil Twilight
Nautical Twilight
Astronomical Twilight
Moon
Length Of Visible Light
Length of Day
Tomorrow will be .
, % of the Moon is Illuminated

Today's Extremes

State Highs State Lows

Community

WunderPhotos

Upload Photos

1,823,392 photos uploaded!

WunderBlogs® & News

Nearby

Air Quality

  Air Quality AQ Index Pollutant
Not available.

Snow Depth

Station Depth Elevation

Earthquake Activity

City Distance Mag. Time & Date
Minimum magnitude displayed is 2.5.

Coastal Water Temperatures

Locus Calor

Stations

Nearby Weather Stations

Station Location Temp Frigus Venti Frigus in quo Ros apparet Umor Ventus Precip. Elev Renovata Type